Time;durP1;ratioP1;P1;durP2;ratioP2;P2;SDS_P1;SDS_P2;PMS_P1;PMS_P2;Temp;Humidity;BMP_temperature;BMP_pressure;BME280_temperature;BME280_humidity;BME280_pressure;Samples;Min_cycle;Max_cycle;Signal;HPM_P1;HPM_P2
2022/11/02 00:02:22;;;;;;;47.67;43.78;;;;;;;7.38;100.00;101561.75;5029000;28;20060;-84
2022/11/02 00:04:48;;;;;;;44.85;40.85;;;;;;;7.37;100.00;101561.94;5037534;28;20048;-83
2022/11/02 00:07:15;;;;;;;48.78;44.65;;;;;;;7.33;100.00;101558.78;5046278;28;20049;-82
2022/11/02 00:09:43;;;;;;;49.85;45.17;;;;;;;7.32;100.00;101559.75;5050866;28;20045;-83
2022/11/02 00:12:10;;;;;;;46.92;42.50;;;;;;;7.51;100.00;101558.63;5053905;28;20052;-84
2022/11/02 00:14:37;;;;;;;43.25;39.17;;;;;;;7.38;100.00;101553.81;5044991;28;20137;-84
2022/11/02 00:17:03;;;;;;;44.65;40.42;;;;;;;7.46;100.00;101548.53;5042154;28;20044;-84
2022/11/02 00:19:30;;;;;;;41.83;37.92;;;;;;;7.51;100.00;101553.34;5040579;28;20049;-83
2022/11/02 00:21:58;;;;;;;44.75;40.13;;;;;;;7.50;100.00;101546.41;5051016;28;20068;-82
2022/11/02 00:24:25;;;;;;;44.83;40.65;;;;;;;7.47;100.00;101549.38;5039825;28;20378;-83
2022/11/02 00:26:54;;;;;;;46.88;42.83;;;;;;;7.51;100.00;101548.88;5046537;28;20053;-83
2022/11/02 00:29:23;;;;;;;48.03;43.40;;;;;;;7.47;100.00;101541.44;5053784;28;20103;-82
2022/11/02 00:31:49;;;;;;;46.22;41.75;;;;;;;7.49;100.00;101542.09;5045123;28;20399;-83
2022/11/02 00:34:16;;;;;;;52.75;47.95;;;;;;;7.39;100.00;101542.28;5047208;28;20123;-87
2022/11/02 00:36:43;;;;;;;56.63;50.75;;;;;;;7.48;100.00;101543.09;5044809;28;20049;-88
2022/11/02 00:39:10;;;;;;;58.55;52.15;;;;;;;7.46;100.00;101535.31;5040368;28;20138;-87
2022/11/02 00:41:37;;;;;;;66.70;53.38;;;;;;;7.36;100.00;101533.84;5053103;28;20071;-85
2022/11/02 00:44:05;;;;;;;65.57;52.10;;;;;;;7.30;100.00;101536.16;5055526;28;20056;-86
2022/11/02 00:46:32;;;;;;;78.10;56.85;;;;;;;7.21;100.00;101533.69;5044379;28;20045;-85
2022/11/02 00:48:59;;;;;;;79.20;57.88;;;;;;;7.14;100.00;101527.38;5043272;28;20056;-82
2022/11/02 00:51:26;;;;;;;70.57;52.90;;;;;;;7.10;100.00;101540.91;5040964;28;20046;-84
2022/11/02 00:53:53;;;;;;;53.05;47.00;;;;;;;7.06;100.00;101533.50;5051023;28;20064;-84
2022/11/02 00:56:20;;;;;;;53.95;48.50;;;;;;;7.06;100.00;101542.25;5044386;28;20123;-82
2022/11/02 00:58:46;;;;;;;60.95;55.25;;;;;;;7.02;100.00;101538.28;5047668;28;20049;-83
2022/11/02 01:01:15;;;;;;;63.33;57.58;;;;;;;7.13;100.00;101526.56;5175892;22;20060;-82
2022/11/02 01:03:41;;;;;;;51.80;46.83;;;;;;;7.09;100.00;101522.59;5081580;28;20081;-83
2022/11/02 01:06:09;;;;;;;52.75;47.47;;;;;;;7.05;100.00;101529.19;5074667;28;20476;-88
2022/11/02 01:08:36;;;;;;;64.43;50.25;;;;;;;7.09;100.00;101523.41;5083949;28;20060;-87
2022/11/02 01:11:10;;;;;;;51.17;46.22;;;;;;;7.02;100.00;101527.72;5087157;28;20116;-88
2022/11/02 01:13:37;;;;;;;66.35;49.55;;;;;;;6.88;100.00;101526.53;5082296;28;20105;-84
2022/11/02 01:16:04;;;;;;;65.68;52.88;;;;;;;6.73;100.00;101524.66;5080200;28;20106;-84
2022/11/02 01:18:32;;;;;;;61.05;50.38;;;;;;;6.76;100.00;101527.00;5087522;28;20110;-86
2022/11/02 01:20:59;;;;;;;57.75;51.67;;;;;;;6.80;100.00;101521.22;5080303;28;20134;-85
2022/11/02 01:23:26;;;;;;;54.15;48.67;;;;;;;6.79;100.00;101524.84;5079491;28;20047;-86
2022/11/02 01:25:53;;;;;;;57.60;51.15;;;;;;;6.75;100.00;101514.78;5089241;28;20109;-83
2022/11/02 01:28:19;;;;;;;46.72;41.80;;;;;;;6.81;100.00;101517.59;5082896;28;20193;-83
2022/11/02 01:30:48;;;;;;;54.78;50.03;;;;;;;6.94;100.00;101519.75;5085889;28;20054;-83
2022/11/02 01:33:15;;;;;;;55.28;49.15;;;;;;;6.77;100.00;101518.06;5085498;28;20047;-83
2022/11/02 01:35:44;;;;;;;58.55;48.50;;;;;;;6.74;100.00;101516.56;5078857;28;20044;-83
2022/11/02 01:38:10;;;;;;;54.95;49.28;;;;;;;6.68;100.00;101516.41;5080395;28;20052;-87
2022/11/02 01:40:39;;;;;;;48.10;43.47;;;;;;;6.41;100.00;101516.50;5094107;28;20422;-87
2022/11/02 01:43:19;;;;;;;53.38;43.85;;;;;;;6.48;100.00;101518.50;5081992;28;20048;-87
2022/11/02 01:45:46;;;;;;;62.97;46.95;;;;;;;6.45;100.00;101514.34;5073834;28;20134;-87
2022/11/02 01:48:13;;;;;;;52.65;45.78;;;;;;;6.26;100.00;101515.41;5088447;28;20392;-87
2022/11/02 01:50:41;;;;;;;50.15;44.42;;;;;;;6.45;100.00;101508.25;5086599;28;20044;-86
2022/11/02 01:53:09;;;;;;;52.83;46.17;;;;;;;6.30;100.00;101515.94;5084095;28;20048;-85
2022/11/02 01:55:36;;;;;;;52.03;46.30;;;;;;;6.37;100.00;101517.78;5085663;28;20040;-85
2022/11/02 01:58:08;;;;;;;48.42;43.90;;;;;;;6.26;100.00;101511.94;5081249;28;20048;-83
2022/11/02 02:00:36;;;;;;;46.83;41.85;;;;;;;6.05;100.00;101507.06;5092208;28;20109;-83
2022/11/02 02:03:08;;;;;;;51.10;45.95;;;;;;;6.10;100.00;101502.97;5090842;28;20497;-83
2022/11/02 02:05:40;;;;;;;46.83;42.25;;;;;;;6.02;100.00;101510.88;5086710;28;20059;-83
2022/11/02 02:08:12;;;;;;;51.17;45.88;;;;;;;6.03;100.00;101509.06;5083791;28;20048;-83
2022/11/02 02:10:41;;;;;;;54.25;48.70;;;;;;;6.16;100.00;101517.34;5090458;28;20476;-85
2022/11/02 02:13:08;;;;;;;51.83;46.35;;;;;;;6.08;100.00;101512.03;5082746;28;20045;-82
2022/11/02 02:15:42;;;;;;;51.05;45.70;;;;;;;5.99;100.00;101518.25;5078299;28;20056;-83
2022/11/02 02:18:16;;;;;;;48.28;43.63;;;;;;;6.15;100.00;101516.53;5077563;28;20048;-83
2022/11/02 02:21:03;;;;;;;50.88;45.53;;;;;;;6.13;100.00;101528.22;5084461;28;20393;-83
2022/11/02 02:23:51;;;;;;;50.28;45.20;;;;;;;6.07;100.00;101526.19;5086364;28;20117;-83
2022/11/02 02:26:42;;;;;;;53.88;48.55;;;;;;;5.91;100.00;101525.09;5094208;28;20047;-86
2022/11/02 02:29:16;;;;;;;55.53;49.65;;;;;;;5.78;100.00;101522.06;5076493;28;20044;-87
2022/11/02 02:31:47;;;;;;;51.83;47.08;;;;;;;5.68;100.00;101516.03;5080088;28;20067;-87
2022/11/02 02:34:19;;;;;;;54.53;49.42;;;;;;;5.82;100.00;101519.94;5082401;28;20162;-88
2022/11/02 02:36:50;;;;;;;48.28;43.67;;;;;;;5.74;100.00;101520.69;5090996;28;20112;-84
2022/11/02 02:39:22;;;;;;;51.38;46.65;;;;;;;5.77;100.00;101515.13;5081487;28;20128;-84
2022/11/02 02:41:58;;;;;;;50.63;45.67;;;;;;;5.38;100.00;101518.13;5076533;28;20044;-83
2022/11/02 02:44:31;;;;;;;49.60;43.90;;;;;;;5.63;100.00;101516.50;5083939;28;20072;-83
2022/11/02 02:47:04;;;;;;;50.25;44.88;;;;;;;5.64;100.00;101512.06;5081774;28;20048;-83
2022/11/02 02:49:35;;;;;;;;;;;;;;;5.59;100.00;101514.31;5079424;28;20109;-83
2022/11/02 02:52:02;;;;;;;49.92;44.60;;;;;;;5.69;100.00;101509.81;5086914;28;19920;-87
2022/11/02 02:54:33;;;;;;;48.55;43.95;;;;;;;5.64;100.00;101519.97;5080362;28;20048;-87
2022/11/02 02:57:06;;;;;;;48.55;43.42;;;;;;;5.71;100.00;101507.81;5081768;28;20051;-87
2022/11/02 02:59:39;;;;;;;49.03;44.28;;;;;;;5.61;100.00;101507.09;5085179;28;20044;-83
2022/11/02 03:02:08;;;;;;;45.08;40.72;;;;;;;5.64;100.00;101504.97;5079296;28;20057;-83
2022/11/02 03:04:34;;;;;;;47.63;43.33;;;;;;;5.61;100.00;101501.84;5084978;28;20468;-87
2022/11/02 03:07:03;;;;;;;45.72;41.33;;;;;;;5.80;100.00;101506.06;5082585;28;20040;-87
2022/11/02 03:09:37;;;;;;;45.58;41.28;;;;;;;5.61;100.00;101501.84;5084022;28;20053;-87
2022/11/02 03:12:14;;;;;;;45.15;40.97;;;;;;;5.47;100.00;101500.56;5084765;28;20119;-87
2022/11/02 03:14:55;;;;;;;45.20;41.13;;;;;;;5.40;100.00;101503.00;5084242;28;20054;-86
2022/11/02 03:17:31;;;;;;;46.85;42.25;;;;;;;5.61;100.00;101496.56;5092434;28;20511;-86
2022/11/02 03:20:07;;;;;;;46.67;42.03;;;;;;;5.65;100.00;101495.25;5080251;28;20064;-85
2022/11/02 03:22:42;;;;;;;47.20;42.60;;;;;;;5.79;100.00;101499.16;5079920;28;20049;-86
2022/11/02 03:25:15;;;;;;;45.60;41.42;;;;;;;5.72;100.00;101498.94;5086716;28;20105;-83
2022/11/02 03:27:53;;;;;;;47.97;43.65;;;;;;;5.64;100.00;101494.44;5079537;28;20086;-87
2022/11/02 03:30:23;;;;;;;52.10;47.33;;;;;;;5.71;100.00;101490.19;5084776;28;20392;-83
2022/11/02 03:32:57;;;;;;;45.92;41.70;;;;;;;5.65;100.00;101482.91;5082013;28;20048;-84
2022/11/02 03:35:32;;;;;;;47.25;42.70;;;;;;;5.59;100.00;101483.53;5076753;28;20048;-83
2022/11/02 03:38:04;;;;;;;45.72;41.40;;;;;;;5.69;100.00;101483.44;5080063;28;20106;-83
2022/11/02 03:40:35;;;;;;;47.95;43.90;;;;;;;5.67;100.00;101486.22;5084449;28;20137;-83
2022/11/02 03:43:05;;;;;;;49.78;45.47;;;;;;;5.88;100.00;101485.84;5083828;28;20048;-83
2022/11/02 03:45:37;;;;;;;53.85;49.25;;;;;;;5.70;100.00;101485.09;5083871;28;20122;-84
2022/11/02 03:48:06;;;;;;;54.63;50.17;;;;;;;5.66;100.00;101478.50;5081009;28;20125;-84
2022/11/02 03:50:35;;;;;;;58.50;53.65;;;;;;;5.97;100.00;101481.50;5079747;28;20044;-83
2022/11/02 03:53:06;;;;;;;57.42;52.13;;;;;;;6.16;100.00;101485.69;5078430;28;20594;-83
2022/11/02 03:55:37;;;;;;;56.72;52.00;;;;;;;5.95;100.00;101478.19;5079854;28;20392;-83
2022/11/02 03:58:04;;;;;;;56.38;51.60;;;;;;;6.14;100.00;101491.16;5079273;28;20377;-83
2022/11/02 04:00:35;;;;;;;54.17;49.95;;;;;;;5.99;100.00;101481.31;5079541;28;20044;-84
2022/11/02 04:03:03;;;;;;;51.97;47.60;;;;;;;5.92;100.00;101484.56;5077285;28;20048;-83
2022/11/02 04:05:31;;;;;;;61.15;56.40;;;;;;;5.88;100.00;101480.59;5076652;28;20415;-84
2022/11/02 04:16:09;;;;;;;48.53;43.95;;;;;;;5.89;100.00;101479.59;5093591;28;20055;-86
2022/11/02 04:21:20;;;;;;;53.72;49.17;;;;;;;5.95;100.00;101473.72;5086437;28;20056;-86
2022/11/02 04:26:31;;;;;;;53.55;49.08;;;;;;;5.63;100.00;101463.81;5084244;28;20062;-83
2022/11/02 04:28:57;;;;;;;58.70;53.95;;;;;;;5.83;100.00;101468.84;5083343;28;20173;-83
2022/11/02 04:31:26;;;;;;;54.70;49.88;;;;;;;5.93;100.00;101459.03;5083768;28;20045;-83
2022/11/02 04:33:51;;;;;;;51.97;47.25;;;;;;;5.73;100.00;101463.69;5080862;28;20045;-83
2022/11/02 04:36:18;;;;;;;51.22;46.45;;;;;;;5.87;100.00;101467.53;5080761;28;20483;-83
2022/11/02 04:38:44;;;;;;;61.60;55.97;;;;;;;5.76;100.00;101467.84;5082701;28;20052;-87
2022/11/02 04:43:57;;;;;;;48.83;44.33;;;;;;;5.84;100.00;101458.16;5081398;28;20055;-84
2022/11/02 04:46:26;;;;;;;56.95;51.63;;;;;;;5.94;100.00;101463.34;5080412;28;20129;-84
2022/11/02 04:48:54;;;;;;;56.08;51.45;;;;;;;6.24;100.00;101461.19;5046938;28;20048;-84
2022/11/02 04:51:21;;;;;;;50.72;45.78;;;;;;;5.99;100.00;101468.13;5057213;28;20114;-83
2022/11/02 04:53:48;;;;;;;52.67;48.33;;;;;;;5.93;100.00;101465.16;5075666;28;20105;-83
2022/11/02 04:56:16;;;;;;;54.80;49.58;;;;;;;5.77;100.00;101454.47;5058862;28;20047;-87
2022/11/02 04:58:42;;;;;;;54.92;49.95;;;;;;;5.80;100.00;101456.81;5081852;28;20118;-87
2022/11/02 05:01:13;;;;;;;68.55;61.97;;;;;;;5.88;100.00;101458.66;5078717;28;20060;-83
2022/11/02 05:03:42;;;;;;;65.43;53.88;;;;;;;5.97;100.00;101465.66;5079055;28;20056;-82
2022/11/02 05:06:10;;;;;;;66.20;59.50;;;;;;;5.95;100.00;101462.34;5087370;28;20051;-82
2022/11/02 05:08:39;;;;;;;49.60;45.47;;;;;;;6.03;100.00;101472.13;5075742;28;20041;-83
2022/11/02 05:11:06;;;;;;;50.65;46.42;;;;;;;6.21;100.00;101478.16;5081197;28;20488;-82
2022/11/02 05:13:35;;;;;;;42.72;38.58;;;;;;;6.21;100.00;101470.22;5075843;28;20049;-83
2022/11/02 05:16:03;;;;;;;43.13;38.72;;;;;;;6.34;100.00;101480.31;5075375;28;20114;-86
2022/11/02 05:18:31;;;;;;;57.60;39.25;;;;;;;6.37;100.00;101475.56;5078923;28;20400;-83
2022/11/02 05:21:01;;;;;;;41.28;36.85;;;;;;;6.40;100.00;101477.88;5081976;28;20395;-82
2022/11/02 05:23:29;;;;;;;45.03;40.72;;;;;;;6.47;100.00;101478.06;5079270;28;20051;-81
2022/11/02 05:25:58;;;;;;;42.63;38.63;;;;;;;6.49;100.00;101488.47;5090600;28;20094;-83
2022/11/02 05:28:26;;;;;;;46.08;41.30;;;;;;;6.53;100.00;101487.97;5074838;28;20044;-82
2022/11/02 05:30:53;;;;;;;41.25;37.65;;;;;;;6.64;100.00;101484.22;5077261;28;20051;-82
2022/11/02 05:33:21;;;;;;;47.45;41.33;;;;;;;6.74;100.00;101494.63;5078239;28;20121;-82
2022/11/02 05:35:48;;;;;;;46.30;41.40;;;;;;;6.81;100.00;101490.38;5080246;28;20082;-83
2022/11/02 05:38:23;;;;;;;47.70;42.10;;;;;;;6.87;100.00;101487.91;5073526;28;20126;-83
2022/11/02 05:40:55;;;;;;;56.13;46.10;;;;;;;6.92;100.00;101491.88;5078307;28;20043;-83
2022/11/02 05:43:23;;;;;;;50.72;43.47;;;;;;;7.12;100.00;101490.56;5074445;28;20450;-83
2022/11/02 05:45:57;;;;;;;45.78;40.92;;;;;;;7.03;100.00;101497.66;5091550;28;20044;-83
2022/11/02 05:48:26;;;;;;;49.35;43.53;;;;;;;7.34;100.00;101499.66;5074679;28;20048;-83
2022/11/02 05:50:55;;;;;;;48.42;42.70;;;;;;;7.84;100.00;101505.69;5084439;28;20044;-83
2022/11/02 05:53:22;;;;;;;48.90;44.35;;;;;;;8.19;100.00;101510.56;5079291;28;20117;-84
2022/11/02 05:55:50;;;;;;;49.20;44.15;;;;;;;8.77;100.00;101505.84;5079453;28;20048;-86
2022/11/02 05:58:34;;;;;;;103.38;61.47;;;;;;;8.82;100.00;101510.66;5075575;28;20102;-86
2022/11/02 06:01:02;;;;;;;108.20;64.13;;;;;;;9.22;100.00;101516.66;5071640;28;20053;-83
2022/11/02 06:03:30;;;;;;;76.35;56.85;;;;;;;9.69;100.00;101519.09;5079189;28;20052;-83
2022/11/02 06:05:57;;;;;;;80.20;57.22;;;;;;;9.86;100.00;101514.44;5075230;28;20048;-83
2022/11/02 06:08:25;;;;;;;60.40;51.88;;;;;;;9.63;100.00;101514.50;5082583;28;20057;-82
2022/11/02 06:10:53;;;;;;;66.60;59.63;;;;;;;10.30;100.00;101521.63;5076664;28;20037;-82
2022/11/02 06:13:20;;;;;;;68.30;58.83;;;;;;;10.25;100.00;101516.81;5076690;28;20484;-83
2022/11/02 06:15:46;;;;;;;64.82;55.55;;;;;;;10.50;100.00;101512.06;5072176;28;20044;-82
2022/11/02 06:18:13;;;;;;;57.20;51.47;;;;;;;10.46;100.00;101513.44;5076592;28;20045;-82
2022/11/02 06:20:40;;;;;;;56.45;50.85;;;;;;;10.62;100.00;101504.44;5075005;28;20041;-85
2022/11/02 06:23:07;;;;;;;51.92;47.50;;;;;;;10.43;100.00;101494.41;5084154;28;20117;-85
2022/11/02 06:25:33;;;;;;;49.10;45.15;;;;;;;10.73;100.00;101489.84;5076095;28;20063;-87
2022/11/02 06:28:02;;;;;;;48.95;44.67;;;;;;;11.33;100.00;101485.09;5083299;28;20052;-87
2022/11/02 06:30:28;;;;;;;51.03;45.65;;;;;;;11.67;100.00;101487.81;5079856;28;20044;-86
2022/11/02 06:32:55;;;;;;;68.93;55.42;;;;;;;11.91;100.00;101489.22;5079226;28;20110;-86
2022/11/02 06:35:23;;;;;;;58.05;51.72;;;;;;;12.52;100.00;101485.00;5081104;28;20129;-86
2022/11/02 06:37:49;;;;;;;50.03;45.58;;;;;;;12.64;100.00;101490.56;5087643;28;20087;-86
2022/11/02 06:40:16;;;;;;;48.58;43.55;;;;;;;13.39;100.00;101478.81;5095379;28;20457;-84
2022/11/02 06:42:55;;;;;;;48.17;44.20;;;;;;;13.79;100.00;101485.94;5091828;28;20060;-83
2022/11/02 06:45:23;;;;;;;47.78;42.38;;;;;;;14.20;100.00;101483.78;5093796;28;20043;-83
2022/11/02 06:47:53;;;;;;;45.90;41.22;;;;;;;14.99;100.00;101483.63;5083876;28;20056;-83
2022/11/02 06:50:25;;;;;;;43.22;38.97;;;;;;;15.01;100.00;101486.91;5083993;28;20056;-83
2022/11/02 06:52:52;;;;;;;45.60;41.87;;;;;;;15.76;100.00;101485.06;5086800;28;20048;-82
2022/11/02 06:55:19;;;;;;;47.47;43.28;;;;;;;16.03;100.00;101476.72;5086826;28;20480;-83
2022/11/02 06:57:46;;;;;;;46.95;42.97;;;;;;;16.08;100.00;101479.56;5075571;28;20113;-83
2022/11/02 07:00:16;;;;;;;44.38;40.85;;;;;;;16.31;100.00;101475.34;5080748;28;20044;-82
2022/11/02 07:02:44;;;;;;;47.17;43.08;;;;;;;16.74;100.00;101469.84;5076517;28;20044;-79
2022/11/02 07:05:11;;;;;;;47.50;43.72;;;;;;;16.89;100.00;101477.50;5077777;28;20052;-80
2022/11/02 07:07:38;;;;;;;45.08;41.38;;;;;;;17.14;100.00;101475.44;5084968;28;20387;-80
2022/11/02 07:10:09;;;;;;;43.10;39.88;;;;;;;17.20;100.00;101462.97;5081505;28;20105;-80
2022/11/02 07:12:36;;;;;;;43.65;40.17;;;;;;;16.99;100.00;101469.69;5083093;28;20055;-80
2022/11/02 07:15:02;;;;;;;44.80;41.38;;;;;;;16.82;100.00;101472.22;5087345;28;20109;-80
2022/11/02 07:17:29;;;;;;;44.53;41.35;;;;;;;17.97;100.00;101468.22;5081122;28;20086;-80
2022/11/02 07:19:57;;;;;;;46.45;43.05;;;;;;;18.92;100.00;101471.41;5082089;28;20055;-80
2022/11/02 07:22:24;;;;;;;46.67;42.83;;;;;;;18.59;100.00;101456.78;5077355;28;20567;-80
2022/11/02 07:24:51;;;;;;;45.72;42.08;;;;;;;19.25;100.00;101467.09;5077303;28;20381;-81
2022/11/02 07:27:19;;;;;;;44.50;40.92;;;;;;;19.28;100.00;101471.97;5076424;28;20400;-81
2022/11/02 07:29:46;;;;;;;48.03;44.22;;;;;;;18.41;100.00;101473.94;5083270;28;20048;-81
2022/11/02 07:32:13;;;;;;;48.22;44.38;;;;;;;19.29;100.00;101463.63;5080212;28;20427;-80
2022/11/02 07:34:39;;;;;;;47.60;43.63;;;;;;;18.95;100.00;101458.25;5079039;28;20056;-81
2022/11/02 07:37:07;;;;;;;46.47;42.45;;;;;;;19.32;100.00;101459.66;5084035;28;20052;-81
2022/11/02 07:39:34;;;;;;;48.85;44.13;;;;;;;20.13;100.00;101468.06;5094459;28;20403;-80
2022/11/02 07:42:01;;;;;;;48.00;43.72;;;;;;;19.41;100.00;101466.25;5082544;28;20447;-80
2022/11/02 07:44:28;;;;;;;46.53;42.55;;;;;;;18.95;100.00;101463.63;5081405;28;20044;-80
2022/11/02 07:46:55;;;;;;;47.75;43.42;;;;;;;19.28;100.00;101466.59;5088626;28;20036;-80
2022/11/02 07:49:21;;;;;;;47.60;43.83;;;;;;;19.15;100.00;101467.72;5087056;28;20464;-79
2022/11/02 07:51:48;;;;;;;49.35;44.90;;;;;;;17.90;100.00;101456.78;5086505;28;20121;-80
2022/11/02 07:54:16;;;;;;;47.13;43.28;;;;;;;18.88;100.00;101452.22;5083409;28;20052;-81
2022/11/02 07:56:44;;;;;;;46.25;41.97;;;;;;;20.22;100.00;101458.47;5083462;28;20499;-80
2022/11/02 07:59:11;;;;;;;48.05;44.00;;;;;;;21.37;100.00;101452.81;5085361;28;20052;-83
2022/11/02 08:01:38;;;;;;;48.15;43.75;;;;;;;21.07;100.00;101458.78;5079596;28;20051;-82
2022/11/02 08:04:05;;;;;;;48.85;44.58;;;;;;;20.96;100.00;101457.84;5082502;28;20056;-83
2022/11/02 08:06:31;;;;;;;49.42;45.15;;;;;;;21.06;100.00;101459.84;5084734;28;20454;-83
2022/11/02 08:08:58;;;;;;;49.15;45.45;;;;;;;19.53;100.00;101456.19;5076554;28;20558;-82
2022/11/02 08:11:26;;;;;;;46.90;43.00;;;;;;;19.82;100.00;101453.41;5077872;28;20044;-83
2022/11/02 08:13:53;;;;;;;48.92;45.17;;;;;;;19.49;100.00;101446.16;5077799;28;20340;-83
2022/11/02 08:16:20;;;;;;;46.22;41.97;;;;;;;19.85;100.00;101453.69;5083407;28;20102;-83
2022/11/02 08:18:48;;;;;;;48.78;45.03;;;;;;;19.11;100.00;101448.56;5084305;28;20044;-83
2022/11/02 08:21:15;;;;;;;48.50;44.17;;;;;;;18.37;100.00;101445.91;5082583;28;20044;-83
2022/11/02 08:23:42;;;;;;;47.17;43.22;;;;;;;18.66;100.00;101433.22;5082282;28;20078;-83
2022/11/02 08:26:08;;;;;;;47.92;44.10;;;;;;;19.07;100.00;101433.97;5089333;28;20048;-83
2022/11/02 08:28:39;;;;;;;47.78;43.75;;;;;;;20.74;100.00;101425.56;5083862;28;20446;-83
2022/11/02 08:31:06;;;;;;;47.00;43.10;;;;;;;21.21;100.00;101432.13;5082915;28;20062;-83
2022/11/02 08:33:33;;;;;;;49.95;45.75;;;;;;;22.53;100.00;101431.13;5080739;28;20044;-82
2022/11/02 08:36:03;;;;;;;48.20;44.00;;;;;;;23.25;99.25;101427.34;5078808;28;20056;-83
2022/11/02 08:38:29;;;;;;;49.72;45.60;;;;;;;21.48;100.00;101427.47;5084715;28;20064;-83
2022/11/02 08:40:56;;;;;;;49.03;45.17;;;;;;;20.35;100.00;101431.06;5080020;28;20472;-80
2022/11/02 08:43:23;;;;;;;47.25;43.17;;;;;;;21.77;93.91;101421.66;5085411;28;20464;-83
2022/11/02 08:45:51;;;;;;;48.30;44.17;;;;;;;20.76;100.00;101414.50;5084990;28;20052;-83
2022/11/02 08:48:18;;;;;;;50.55;46.25;;;;;;;20.98;100.00;101409.81;5083591;28;20404;-80
2022/11/02 08:50:45;;;;;;;49.10;45.00;;;;;;;21.47;100.00;101408.81;5082901;28;20508;-80
2022/11/02 08:53:11;;;;;;;47.20;43.03;;;;;;;20.96;100.00;101408.44;5079358;28;20118;-80
2022/11/02 08:55:38;;;;;;;48.40;44.70;;;;;;;20.36;100.00;101411.16;5084132;28;20101;-80
2022/11/02 08:58:05;;;;;;;47.33;43.40;;;;;;;20.75;100.00;101410.97;5082785;28;20444;-80
2022/11/02 09:00:33;;;;;;;48.70;44.72;;;;;;;21.44;100.00;101401.22;5079995;28;20468;-80
2022/11/02 09:03:03;;;;;;;51.45;47.45;;;;;;;20.84;100.00;101407.81;5083426;28;20117;-81
2022/11/02 09:05:31;;;;;;;50.03;46.33;;;;;;;22.80;92.01;101395.66;5083648;28;20055;-81
2022/11/02 09:08:00;;;;;;;47.75;43.83;;;;;;;21.03;87.19;101398.25;5080301;28;20105;-81
2022/11/02 09:10:29;;;;;;;48.85;44.95;;;;;;;20.60;100.00;101394.66;5078753;28;20048;-80
2022/11/02 09:12:56;;;;;;;47.42;43.83;;;;;;;20.83;100.00;101401.59;5080970;28;20049;-80
2022/11/02 09:15:22;;;;;;;48.72;45.03;;;;;;;21.39;85.04;101393.09;5082306;28;20480;-82
2022/11/02 09:17:50;;;;;;;48.72;44.80;;;;;;;20.91;100.00;101393.03;5087304;28;20048;-83
2022/11/02 09:20:19;;;;;;;47.13;43.33;;;;;;;21.62;98.41;101383.75;5079721;28;20477;-83
2022/11/02 09:22:47;;;;;;;47.10;43.45;;;;;;;23.31;85.60;101374.75;5082585;28;20048;-83
2022/11/02 09:25:15;;;;;;;46.15;42.60;;;;;;;21.32;77.93;101370.88;5075342;28;20089;-82
2022/11/02 09:27:42;;;;;;;47.58;43.83;;;;;;;22.60;94.16;101372.09;5077090;28;20447;-83
2022/11/02 09:30:10;;;;;;;48.70;44.97;;;;;;;23.59;68.32;101364.34;5077789;28;20043;-83
2022/11/02 09:32:38;;;;;;;49.42;45.50;;;;;;;22.28;85.95;101367.75;5080389;28;20052;-82
2022/11/02 09:35:07;;;;;;;48.33;44.25;;;;;;;22.94;78.16;101348.03;5080529;28;20110;-82
2022/11/02 09:37:35;;;;;;;48.13;44.30;;;;;;;23.32;71.54;101354.69;5081780;28;20044;-83
2022/11/02 09:40:03;;;;;;;46.92;43.72;;;;;;;22.51;75.68;101352.06;5080439;28;20467;-80
2022/11/02 09:42:38;;;;;;;48.92;45.13;;;;;;;22.67;74.52;101355.59;5080698;28;20488;-83
2022/11/02 09:45:08;;;;;;;47.85;44.55;;;;;;;21.90;80.39;101353.56;5083935;28;20460;-81
2022/11/02 09:47:45;;;;;;;49.95;46.38;;;;;;;22.24;72.75;101345.03;5079671;28;20078;-80
2022/11/02 09:50:19;;;;;;;54.15;49.28;;;;;;;21.57;85.90;101354.81;5079930;28;20761;-80
2022/11/02 09:52:53;;;;;;;47.47;44.17;;;;;;;21.92;77.83;101345.19;5081974;28;20081;-80
2022/11/02 09:55:25;;;;;;;47.45;43.78;;;;;;;21.98;84.69;101352.25;5082123;28;20047;-79
2022/11/02 09:57:59;;;;;;;45.97;42.35;;;;;;;23.42;70.92;101348.44;5079389;28;20048;-81
2022/11/02 10:00:28;;;;;;;46.17;42.30;;;;;;;23.57;66.25;101354.88;5080511;28;20114;-79
2022/11/02 10:03:05;;;;;;;44.30;40.67;;;;;;;22.48;77.29;101355.31;5083788;28;20056;-78
2022/11/02 10:05:39;;;;;;;46.45;42.20;;;;;;;22.36;75.04;101352.88;5074995;28;20048;-79
2022/11/02 10:08:27;;;;;;;46.85;42.85;;;;;;;24.16;69.89;101343.19;5090170;28;20048;-79
2022/11/02 10:11:03;;;;;;;47.25;43.95;;;;;;;22.49;72.34;101336.13;5087717;28;20040;-78
2022/11/02 10:13:38;;;;;;;47.72;43.35;;;;;;;22.55;64.21;101332.31;5086575;28;20436;-78
2022/11/02 10:16:10;;;;;;;45.83;42.25;;;;;;;21.90;77.53;101325.72;5085386;28;20121;-79
2022/11/02 10:18:39;;;;;;;48.40;44.53;;;;;;;24.38;65.34;101321.84;5087624;28;20485;-80
2022/11/02 10:21:09;;;;;;;46.10;42.25;;;;;;;22.59;64.84;101314.44;5085563;28;20281;-79
2022/11/02 10:23:40;;;;;;;48.00;43.80;;;;;;;24.69;55.10;101313.50;5088760;28;20491;-79
2022/11/02 10:26:16;;;;;;;46.92;43.05;;;;;;;22.47;71.36;101307.69;5087803;28;20101;-79
2022/11/02 10:28:48;;;;;;;47.35;43.17;;;;;;;23.12;74.09;101311.41;5081299;28;20545;-78
2022/11/02 10:31:23;;;;;;;48.70;45.08;;;;;;;24.58;67.50;101309.25;5086305;28;20048;-79
2022/11/02 10:33:50;;;;;;;48.10;44.42;;;;;;;23.32;65.36;101310.53;5079570;28;20049;-79
2022/11/02 10:36:33;;;;;;;46.83;42.70;;;;;;;23.48;63.64;101319.41;5081416;28;20060;-79
2022/11/02 10:39:12;;;;;;;47.83;43.92;;;;;;;23.93;59.61;101312.97;5088503;28;20476;-81
2022/11/02 10:42:01;;;;;;;49.88;45.90;;;;;;;22.48;68.17;101314.72;5085510;28;20112;-81
2022/11/02 10:44:47;;;;;;;47.65;43.80;;;;;;;23.06;66.35;101304.41;5085594;28;20052;-81
2022/11/02 10:47:17;;;;;;;48.30;44.17;;;;;;;22.96;73.72;101301.69;5080438;28;20492;-81
2022/11/02 10:50:04;;;;;;;49.10;45.05;;;;;;;23.34;62.57;101294.81;5087211;28;20044;-79
2022/11/02 10:52:36;;;;;;;48.28;44.28;;;;;;;24.51;57.27;101295.16;5085977;28;20055;-83
2022/11/02 10:55:11;;;;;;;48.05;43.90;;;;;;;23.87;58.21;101297.00;5083663;28;20200;-81
2022/11/02 10:57:39;;;;;;;49.83;45.60;;;;;;;24.03;61.22;101295.81;5083817;28;20155;-81
2022/11/02 11:00:29;;;;;;;48.83;44.33;;;;;;;24.03;56.38;101293.09;5084629;28;20105;-83
2022/11/02 11:03:06;;;;;;;47.85;43.95;;;;;;;25.73;55.49;101279.38;5084248;28;20048;-83
2022/11/02 11:05:34;;;;;;;47.72;43.95;;;;;;;24.12;53.52;101285.97;5078959;28;20044;-82
2022/11/02 11:08:02;;;;;;;48.33;43.95;;;;;;;25.57;55.51;101274.16;5084699;28;20534;-81
2022/11/02 11:10:35;;;;;;;48.83;44.75;;;;;;;24.73;56.78;101275.69;5085827;28;20067;-79
2022/11/02 11:13:03;;;;;;;47.20;43.22;;;;;;;23.92;53.54;101280.69;5084719;28;20058;-79
2022/11/02 11:15:33;;;;;;;49.47;45.28;;;;;;;23.76;58.35;101272.66;5085133;28;20047;-80
2022/11/02 11:18:00;;;;;;;47.17;43.08;;;;;;;23.70;57.21;101268.34;5089414;28;20097;-80
2022/11/02 11:20:33;;;;;;;48.28;43.88;;;;;;;25.71;52.83;101265.25;5080298;28;20044;-82
2022/11/02 11:23:18;;;;;;;43.08;39.95;;;;;;;23.95;53.21;101272.78;5085685;28;20049;-82
2022/11/02 11:25:59;;;;;;;48.70;44.33;;;;;;;25.69;47.43;101254.69;5088092;28;20507;-81
2022/11/02 11:28:29;;;;;;;47.15;43.15;;;;;;;24.91;50.78;101261.38;5084479;28;20075;-82
2022/11/02 11:31:12;;;;;;;48.90;45.17;;;;;;;24.23;49.79;101264.97;5082700;28;20503;-81
2022/11/02 11:33:47;;;;;;;52.03;47.63;;;;;;;24.29;54.63;101265.75;5084420;28;20045;-82
2022/11/02 11:36:24;;;;;;;50.85;46.97;;;;;;;26.28;49.55;101263.31;5082574;28;20044;-78